Time;durP1;ratioP1;P1;durP2;ratioP2;P2;SDS_P1;SDS_P2;PMS_P1;PMS_P2;Temp;Humidity;BMP_temperature;BMP_pressure;BME280_temperature;BME280_humidity;BME280_pressure;Samples;Min_cycle;Max_cycle;Signal;HPM_P1;HPM_P2
2023/07/26 00:00:42;;;;;;;283.05;160.43;;;;;;;11.85;100.00;100546.41;5057473;28;20036;-77
2023/07/26 00:03:10;;;;;;;279.70;158.15;;;;;;;11.80;100.00;100535.38;5074437;28;20102;-77
2023/07/26 00:05:36;;;;;;;285.45;160.05;;;;;;;11.90;100.00;100548.56;5037118;28;20461;-76
2023/07/26 00:08:02;;;;;;;276.52;158.00;;;;;;;11.80;100.00;100546.16;5046339;28;20455;-76
2023/07/26 00:10:28;;;;;;;286.70;161.00;;;;;;;11.84;100.00;100552.81;5073957;28;20093;-76
2023/07/26 00:12:53;;;;;;;280.63;159.23;;;;;;;11.82;100.00;100546.78;5057326;28;20387;-76
2023/07/26 00:15:19;;;;;;;288.42;164.40;;;;;;;11.80;100.00;100551.53;5055936;28;20025;-76
2023/07/26 00:17:44;;;;;;;282.30;161.80;;;;;;;11.79;100.00;100539.06;5056051;28;20036;-77
2023/07/26 00:20:10;;;;;;;280.13;158.68;;;;;;;11.79;100.00;100544.47;5038448;28;20095;-77
2023/07/26 00:22:37;;;;;;;281.23;161.80;;;;;;;11.71;100.00;100536.50;5059265;28;20040;-77
2023/07/26 00:25:02;;;;;;;288.75;164.68;;;;;;;11.64;100.00;100524.78;5040462;28;20463;-76
2023/07/26 00:27:33;;;;;;;293.65;167.45;;;;;;;11.59;100.00;100528.06;5057218;28;20071;-76
2023/07/26 00:29:59;;;;;;;293.77;169.18;;;;;;;11.45;100.00;100526.22;5038324;28;20033;-78
2023/07/26 00:32:29;;;;;;;300.25;170.90;;;;;;;11.31;100.00;100517.13;5037554;28;20045;-76
2023/07/26 00:35:00;;;;;;;294.38;168.23;;;;;;;11.35;100.00;100520.28;5037871;28;20033;-76
2023/07/26 00:37:26;;;;;;;301.42;171.48;;;;;;;11.32;100.00;100518.78;5036296;28;20513;-76
2023/07/26 00:39:51;;;;;;;294.88;170.10;;;;;;;11.20;100.00;100504.16;5053306;28;20033;-76
2023/07/26 00:42:18;;;;;;;295.15;170.60;;;;;;;11.22;100.00;100513.72;5072877;28;20025;-76
2023/07/26 00:44:47;;;;;;;291.95;169.23;;;;;;;11.14;100.00;100512.94;5054356;28;20048;-76
2023/07/26 00:47:16;;;;;;;295.77;170.38;;;;;;;10.97;100.00;100494.31;5053948;28;20084;-76
2023/07/26 00:49:42;;;;;;;303.15;172.00;;;;;;;11.07;100.00;100510.19;5054261;28;20036;-76
2023/07/26 00:52:11;;;;;;;298.60;171.80;;;;;;;11.04;100.00;100512.41;5038002;28;20033;-77
2023/07/26 00:54:36;;;;;;;296.83;171.63;;;;;;;11.00;100.00;100512.75;5056936;28;20051;-77
2023/07/26 00:57:02;;;;;;;291.85;168.93;;;;;;;10.92;100.00;100491.34;5041394;28;20032;-76
2023/07/26 00:59:28;;;;;;;288.95;166.52;;;;;;;11.01;100.00;100502.88;5040434;28;20036;-76
2023/07/26 01:01:53;;;;;;;291.05;169.20;;;;;;;10.97;100.00;100502.38;5057791;28;20459;-77
2023/07/26 01:04:19;;;;;;;293.20;170.38;;;;;;;11.00;100.00;100495.78;5052123;28;20036;-78
2023/07/26 01:07:01;;;;;;;290.65;168.15;;;;;;;11.10;100.00;100499.03;5064324;28;20028;-77
2023/07/26 01:09:41;;;;;;;291.95;171.23;;;;;;;11.15;100.00;100485.88;5074178;28;20037;-76
2023/07/26 01:12:32;;;;;;;291.80;171.07;;;;;;;11.18;100.00;100487.34;5082428;28;20041;-78
2023/07/26 01:15:06;;;;;;;293.48;171.35;;;;;;;11.18;100.00;100484.66;5056360;28;20468;-76
2023/07/26 01:17:32;;;;;;;294.70;170.98;;;;;;;11.05;100.00;100460.25;5037540;28;20049;-76
2023/07/26 01:19:57;;;;;;;294.77;171.18;;;;;;;11.17;100.00;100485.69;5066901;28;20032;-76
2023/07/26 01:22:25;;;;;;;352.13;202.10;;;;;;;11.19;100.00;100486.31;5037610;28;20051;-77
2023/07/26 01:24:51;;;;;;;324.38;187.05;;;;;;;11.21;100.00;100477.03;5037165;28;20056;-76
2023/07/26 01:27:16;;;;;;;277.48;161.48;;;;;;;11.17;100.00;100469.56;5029718;28;20032;-76
2023/07/26 01:29:42;;;;;;;269.92;157.98;;;;;;;11.19;100.00;100468.34;5035686;28;20041;-77
2023/07/26 01:32:12;;;;;;;273.98;159.35;;;;;;;11.15;100.00;100460.81;5068691;28;20048;-77
2023/07/26 01:34:39;;;;;;;278.65;161.35;;;;;;;11.15;100.00;100450.88;5054315;28;20060;-77
2023/07/26 01:37:10;;;;;;;276.30;160.27;;;;;;;11.10;100.00;100449.78;5031985;28;20166;-77
2023/07/26 01:39:36;;;;;;;342.50;196.82;;;;;;;11.02;100.00;100439.13;5053212;28;20040;-77
2023/07/26 01:42:02;;;;;;;303.70;174.25;;;;;;;11.03;100.00;100448.84;5051416;28;20041;-79
2023/07/26 01:44:35;;;;;;;336.92;192.82;;;;;;;11.09;100.00;100440.06;5057689;28;20037;-76
2023/07/26 01:47:01;;;;;;;344.58;197.68;;;;;;;11.22;100.00;100429.47;5054893;28;20028;-76
2023/07/26 01:49:27;;;;;;;337.15;194.38;;;;;;;11.39;100.00;100430.88;5073043;28;20078;-76
2023/07/26 01:51:52;;;;;;;339.35;194.80;;;;;;;11.50;100.00;100420.66;5054928;28;20360;-76
2023/07/26 01:54:18;;;;;;;339.10;193.88;;;;;;;11.74;100.00;100422.97;5070583;28;20028;-77
2023/07/26 01:56:48;;;;;;;284.90;163.52;;;;;;;11.97;100.00;100427.38;5038956;28;20426;-76
2023/07/26 01:59:14;;;;;;;293.40;167.02;;;;;;;12.20;100.00;100425.31;5060892;28;20020;-77
2023/07/26 02:01:39;;;;;;;301.05;170.63;;;;;;;12.28;100.00;100408.19;5053285;28;20036;-77
2023/07/26 02:04:08;;;;;;;285.27;160.80;;;;;;;12.52;100.00;100418.50;5055628;28;20044;-76
2023/07/26 02:06:33;;;;;;;295.67;165.32;;;;;;;12.62;100.00;100412.78;5071548;28;20034;-78
2023/07/26 02:08:59;;;;;;;310.42;173.10;;;;;;;12.80;100.00;100420.34;5035926;28;20040;-76
2023/07/26 02:11:27;;;;;;;314.20;176.30;;;;;;;12.82;100.00;100403.97;5068131;28;20032;-76
2023/07/26 02:13:55;;;;;;;335.42;187.40;;;;;;;13.00;100.00;100408.84;5053667;28;20040;-77
2023/07/26 02:16:24;;;;;;;341.48;188.18;;;;;;;13.13;100.00;100411.59;5053945;28;20033;-78
2023/07/26 02:18:54;;;;;;;264.52;150.02;;;;;;;13.17;100.00;100399.34;5052632;28;20025;-77
2023/07/26 02:21:20;;;;;;;261.23;149.07;;;;;;;13.28;100.00;100403.34;5071029;28;20085;-76
2023/07/26 02:23:48;;;;;;;257.30;145.80;;;;;;;13.38;100.00;100403.81;5072160;28;20032;-76
2023/07/26 02:26:16;;;;;;;262.65;148.93;;;;;;;13.47;100.00;100407.16;5071484;28;20025;-76
2023/07/26 02:28:41;;;;;;;339.40;187.38;;;;;;;13.48;100.00;100398.03;5037089;28;20032;-76
2023/07/26 02:31:07;;;;;;;339.10;186.23;;;;;;;13.50;100.00;100396.81;5053486;28;21887;-77
2023/07/26 02:33:33;;;;;;;332.83;182.90;;;;;;;13.41;100.00;100371.00;5072931;28;20028;-77
2023/07/26 02:36:02;;;;;;;329.33;180.15;;;;;;;13.55;100.00;100382.69;5072483;28;20031;-77
2023/07/26 02:38:30;;;;;;;325.10;179.02;;;;;;;13.49;100.00;100378.91;5068826;28;20089;-77
2023/07/26 02:40:56;;;;;;;338.00;185.15;;;;;;;13.63;100.00;100390.59;5071258;28;20032;-78
2023/07/26 02:43:22;;;;;;;334.80;183.43;;;;;;;13.63;100.00;100379.78;5054737;28;20031;-76
2023/07/26 02:45:47;;;;;;;331.10;182.07;;;;;;;13.64;100.00;100379.56;5038343;28;20143;-76
2023/07/26 02:48:13;;;;;;;253.63;145.30;;;;;;;13.64;100.00;100371.47;5051012;28;20061;-76
2023/07/26 02:50:44;;;;;;;285.23;158.32;;;;;;;13.60;100.00;100361.25;5061343;28;20040;-76
2023/07/26 02:53:15;;;;;;;318.95;175.32;;;;;;;13.64;100.00;100363.34;5054289;28;20036;-78
2023/07/26 02:55:42;;;;;;;323.90;177.63;;;;;;;13.60;100.00;100354.03;5038000;28;20036;-77
2023/07/26 02:58:08;;;;;;;325.75;180.00;;;;;;;13.70;100.00;100360.88;5051536;28;20036;-79
2023/07/26 03:00:33;;;;;;;328.77;179.35;;;;;;;13.70;100.00;100358.19;5019466;28;20041;-77
2023/07/26 03:03:00;;;;;;;249.40;143.25;;;;;;;13.70;100.00;100353.59;5035784;28;20190;-77
2023/07/26 03:05:27;;;;;;;330.27;180.27;;;;;;;13.64;100.00;100352.56;5052286;28;20460;-78
2023/07/26 03:07:56;;;;;;;329.75;179.90;;;;;;;13.58;100.00;100339.06;5062350;28;20029;-78
2023/07/26 03:10:24;;;;;;;248.00;143.68;;;;;;;13.55;100.00;100347.56;5052718;28;20040;-77
2023/07/26 03:12:50;;;;;;;318.80;176.10;;;;;;;13.49;100.00;100335.69;5035746;28;20029;-77
2023/07/26 03:15:15;;;;;;;316.10;174.30;;;;;;;13.52;100.00;100338.00;5019339;28;20029;-78
2023/07/26 03:17:44;;;;;;;307.30;170.07;;;;;;;13.53;100.00;100331.56;5058747;28;20059;-77
2023/07/26 03:20:10;;;;;;;245.77;142.52;;;;;;;13.56;100.00;100330.31;5039109;28;20044;-77
2023/07/26 03:22:36;;;;;;;313.08;173.43;;;;;;;13.51;100.00;100312.00;5075410;28;20475;-79
2023/07/26 03:25:01;;;;;;;308.92;170.40;;;;;;;13.58;100.00;100329.06;5076205;28;20040;-77
2023/07/26 03:27:27;;;;;;;306.75;169.85;;;;;;;13.63;100.00;100325.75;5049832;28;20033;-78
2023/07/26 03:29:53;;;;;;;311.10;172.93;;;;;;;13.62;100.00;100322.19;5041601;28;20032;-77
2023/07/26 03:32:18;;;;;;;298.23;165.55;;;;;;;13.62;100.00;100311.41;5040361;28;20478;-76
2023/07/26 03:34:44;;;;;;;269.30;152.75;;;;;;;13.58;100.00;100295.84;5074557;28;20489;-77
2023/07/26 03:37:10;;;;;;;309.08;171.23;;;;;;;13.68;100.00;100298.09;5041264;28;20464;-78
2023/07/26 03:39:36;;;;;;;307.00;169.27;;;;;;;13.72;100.00;100302.06;5057015;28;20065;-77
2023/07/26 03:42:02;;;;;;;293.80;162.57;;;;;;;13.70;100.00;100302.25;5039269;28;20037;-76
2023/07/26 03:44:27;;;;;;;281.98;157.20;;;;;;;13.76;100.00;100293.34;5068538;28;20036;-76
2023/07/26 03:46:53;;;;;;;297.45;164.07;;;;;;;13.90;100.00;100293.34;5040702;28;20036;-77
2023/07/26 03:49:21;;;;;;;295.63;163.10;;;;;;;13.90;100.00;100293.34;5054794;28;20037;-76
2023/07/26 03:51:46;;;;;;;307.33;169.02;;;;;;;13.91;100.00;100293.13;5073177;28;20044;-76
2023/07/26 03:54:12;;;;;;;310.45;171.18;;;;;;;13.94;100.00;100292.69;5057691;28;20032;-76
2023/07/26 03:56:40;;;;;;;285.42;158.25;;;;;;;14.01;100.00;100307.03;5070895;28;20082;-76
2023/07/26 03:59:06;;;;;;;312.45;170.77;;;;;;;14.01;100.00;100295.41;5073246;28;20150;-76
2023/07/26 04:01:31;;;;;;;294.73;163.23;;;;;;;13.98;100.00;100283.13;5040845;28;20028;-76
2023/07/26 04:03:57;;;;;;;294.00;161.82;;;;;;;13.96;100.00;100282.50;5057806;28;20035;-76
2023/07/26 04:06:22;;;;;;;295.75;163.77;;;;;;;13.97;100.00;100281.47;5053765;28;20033;-76
2023/07/26 04:08:48;;;;;;;271.17;152.75;;;;;;;13.99;100.00;100289.38;5044796;28;20043;-76
2023/07/26 04:11:14;;;;;;;281.92;156.50;;;;;;;13.93;100.00;100274.81;5032362;28;20040;-78
2023/07/26 04:13:39;;;;;;;271.40;151.32;;;;;;;13.95;100.00;100274.63;5040727;28;20036;-77
2023/07/26 04:16:15;;;;;;;287.02;158.50;;;;;;;13.98;100.00;100269.63;5070823;28;20131;-76
2023/07/26 04:18:43;;;;;;;280.95;156.70;;;;;;;13.97;100.00;100265.25;5042092;28;20485;-76
2023/07/26 04:21:30;;;;;;;284.00;157.27;;;;;;;13.90;100.00;100250.91;5041955;28;20029;-76
2023/07/26 04:23:55;;;;;;;287.05;159.10;;;;;;;13.95;100.00;100267.34;5056481;28;20037;-77
2023/07/26 04:26:21;;;;;;;278.27;155.23;;;;;;;13.87;100.00;100245.13;5040457;28;20120;-76
2023/07/26 04:28:46;;;;;;;218.43;131.02;;;;;;;13.96;100.00;100260.06;5071704;28;20040;-77
2023/07/26 04:31:12;;;;;;;247.60;143.20;;;;;;;13.94;100.00;100259.44;5072321;28;20029;-77
2023/07/26 04:33:39;;;;;;;274.15;153.85;;;;;;;13.94;100.00;100257.56;5055511;28;20035;-76
2023/07/26 04:36:05;;;;;;;273.65;151.85;;;;;;;13.90;100.00;100253.63;5072464;28;20085;-77
2023/07/26 04:38:30;;;;;;;274.33;153.48;;;;;;;13.91;100.00;100249.88;5053688;28;20123;-76
2023/07/26 04:40:59;;;;;;;277.65;154.60;;;;;;;13.94;100.00;100245.91;5070695;28;20036;-76
2023/07/26 04:43:24;;;;;;;273.42;152.85;;;;;;;13.88;100.00;100238.66;5057671;28;20033;-76
2023/07/26 04:45:51;;;;;;;276.58;154.02;;;;;;;13.88;100.00;100236.78;5067868;28;20383;-77
2023/07/26 04:48:18;;;;;;;277.88;154.60;;;;;;;13.92;100.00;100231.78;5054064;28;20041;-76
2023/07/26 04:50:45;;;;;;;276.15;154.55;;;;;;;13.92;100.00;100238.03;5037557;28;20067;-77
2023/07/26 04:53:11;;;;;;;220.18;132.13;;;;;;;13.94;100.00;100230.53;5038953;28;20035;-76
2023/07/26 04:55:45;;;;;;;253.18;145.18;;;;;;;13.94;100.00;100225.13;5056927;28;20036;-76
2023/07/26 04:58:11;;;;;;;193.63;121.63;;;;;;;13.96;100.00;100222.22;5041680;28;20127;-77
2023/07/26 05:00:40;;;;;;;273.85;153.75;;;;;;;13.97;100.00;100229.28;5057307;28;20111;-76
2023/07/26 05:03:06;;;;;;;243.35;141.60;;;;;;;13.99;100.00;100213.69;5057409;28;20105;-77
2023/07/26 05:05:35;;;;;;;220.95;131.80;;;;;;;13.95;100.00;100204.34;5057136;28;20072;-76
2023/07/26 05:08:12;;;;;;;218.60;131.55;;;;;;;14.03;100.00;100207.66;5037751;28;20032;-76
2023/07/26 05:10:37;;;;;;;235.35;138.30;;;;;;;14.03;100.00;100207.66;5021618;28;20036;-76
2023/07/26 05:13:03;;;;;;;264.83;150.10;;;;;;;14.04;100.00;100220.09;5021729;28;20036;-77
2023/07/26 05:15:29;;;;;;;276.05;154.50;;;;;;;14.04;100.00;100212.00;5058932;28;20459;-76
2023/07/26 05:17:54;;;;;;;281.25;156.95;;;;;;;14.08;100.00;100199.72;5039508;28;20090;-77
2023/07/26 05:20:22;;;;;;;285.27;158.43;;;;;;;14.03;100.00;100187.91;5054958;28;20071;-76
2023/07/26 05:22:51;;;;;;;272.60;153.73;;;;;;;14.14;100.00;100208.88;5056281;28;20064;-76
2023/07/26 05:25:18;;;;;;;272.77;153.68;;;;;;;14.17;100.00;100207.63;5070686;28;20498;-76
2023/07/26 05:27:43;;;;;;;283.08;156.98;;;;;;;14.09;100.00;100187.03;5039252;28;20395;-76
2023/07/26 05:30:09;;;;;;;274.33;153.88;;;;;;;14.19;100.00;100205.53;5038092;28;20028;-76
2023/07/26 05:32:35;;;;;;;221.43;132.38;;;;;;;14.22;100.00;100208.63;5056044;28;20028;-76
2023/07/26 05:35:02;;;;;;;261.05;147.95;;;;;;;14.25;100.00;100200.09;5072190;28;20042;-76
2023/07/26 05:37:29;;;;;;;272.80;152.77;;;;;;;14.30;100.00;100202.16;5068167;28;20056;-76
2023/07/26 05:39:55;;;;;;;264.73;149.77;;;;;;;14.31;100.00;100198.41;5055872;28;20093;-76
2023/07/26 05:42:20;;;;;;;266.27;150.27;;;;;;;14.35;100.00;100199.63;5071600;28;20028;-77
2023/07/26 05:44:46;;;;;;;267.05;150.27;;;;;;;14.38;100.00;100195.69;5039725;28;20047;-76
2023/07/26 05:47:16;;;;;;;254.68;145.00;;;;;;;14.36;100.00;100190.47;5055847;28;20036;-76
2023/07/26 05:49:44;;;;;;;280.35;155.65;;;;;;;14.37;100.00;100200.25;5038486;28;20040;-76
2023/07/26 05:52:10;;;;;;;268.73;150.73;;;;;;;14.39;100.00;100187.34;5055541;28;20395;-76
2023/07/26 05:54:36;;;;;;;276.77;153.80;;;;;;;14.22;100.00;100151.84;5071709;28;20044;-76
2023/07/26 05:57:02;;;;;;;281.42;155.65;;;;;;;14.36;100.00;100179.66;5055229;28;20039;-76
2023/07/26 05:59:27;;;;;;;271.25;151.50;;;;;;;14.38;100.00;100182.16;5054805;28;20081;-76
2023/07/26 06:01:58;;;;;;;282.55;156.20;;;;;;;14.38;100.00;100174.88;5069192;28;20040;-76
2023/07/26 06:04:24;;;;;;;188.90;118.53;;;;;;;14.31;100.00;100160.53;5074562;28;20070;-76
2023/07/26 06:06:50;;;;;;;190.00;118.95;;;;;;;14.36;100.00;100154.50;5034829;28;20127;-76
2023/07/26 06:09:15;;;;;;;204.25;124.55;;;;;;;14.42;100.00;100162.59;5053413;28;20150;-75
2023/07/26 06:11:42;;;;;;;197.77;121.78;;;;;;;14.47;100.00;100164.63;5071938;28;20439;-74
2023/07/26 06:14:11;;;;;;;201.20;123.05;;;;;;;14.50;100.00;100156.06;5069985;28;20025;-76
2023/07/26 06:16:37;;;;;;;190.68;119.07;;;;;;;14.54;100.00;100159.22;5070506;28;20040;-75
2023/07/26 06:19:03;;;;;;;251.55;143.63;;;;;;;14.54;100.00;100153.81;5069950;28;20078;-75
2023/07/26 06:21:31;;;;;;;275.42;153.00;;;;;;;14.63;100.00;100147.09;5053607;28;20077;-76
2023/07/26 06:23:56;;;;;;;281.30;155.38;;;;;;;14.62;100.00;100145.44;5026730;28;20090;-77
2023/07/26 06:26:26;;;;;;;279.90;154.43;;;;;;;14.68;100.00;100145.38;5062022;28;20021;-76
2023/07/26 06:28:52;;;;;;;286.80;156.35;;;;;;;14.72;100.00;100138.50;5053500;28;20423;-76
2023/07/26 06:31:23;;;;;;;283.58;155.55;;;;;;;14.68;100.00;100128.31;5037956;28;20063;-75
2023/07/26 06:33:51;;;;;;;286.77;157.05;;;;;;;14.79;100.00;100135.75;5072820;28;20037;-76
2023/07/26 06:36:16;;;;;;;283.42;155.63;;;;;;;14.79;100.00;100138.47;5072601;28;20028;-75
2023/07/26 06:38:42;;;;;;;288.50;157.75;;;;;;;14.77;100.00;100143.28;5068638;28;20059;-75
2023/07/26 06:41:11;;;;;;;292.05;158.90;;;;;;;14.78;100.00;100139.50;5055119;28;20032;-77
2023/07/26 06:43:37;;;;;;;282.65;155.38;;;;;;;14.80;100.00;100136.59;5055786;28;20506;-75
2023/07/26 06:46:06;;;;;;;295.38;160.00;;;;;;;14.79;100.00;100124.09;5053148;28;20033;-76
2023/07/26 06:48:32;;;;;;;289.98;158.18;;;;;;;14.82;100.00;100110.97;5056209;28;20036;-75
2023/07/26 06:50:57;;;;;;;282.10;155.10;;;;;;;14.99;100.00;100124.78;5068737;28;20481;-75
2023/07/26 06:53:27;;;;;;;204.07;123.45;;;;;;;15.11;100.00;100119.47;5053751;28;20039;-76
2023/07/26 06:55:59;;;;;;;266.35;148.20;;;;;;;15.24;100.00;100118.53;5069163;28;20130;-76
2023/07/26 06:58:27;;;;;;;290.35;157.52;;;;;;;15.39;100.00;100117.13;5038137;28;20032;-76
2023/07/26 07:00:54;;;;;;;283.60;154.15;;;;;;;15.48;100.00;100112.28;5036957;28;20033;-75
2023/07/26 07:03:22;;;;;;;279.83;152.75;;;;;;;15.58;100.00;100101.72;5051932;28;20106;-76
2023/07/26 07:05:48;;;;;;;282.30;153.10;;;;;;;15.60;100.00;100105.03;5036635;28;20391;-77
2023/07/26 07:08:14;;;;;;;284.55;153.88;;;;;;;15.54;100.00;100110.53;5027875;28;20036;-76
2023/07/26 07:10:39;;;;;;;284.00;154.13;;;;;;;15.58;100.00;100114.44;5034532;28;20040;-75
2023/07/26 07:13:05;;;;;;;284.95;154.60;;;;;;;15.59;100.00;100114.22;5052521;28;20032;-75
2023/07/26 07:15:33;;;;;;;289.45;156.43;;;;;;;15.64;100.00;100107.28;5040581;28;20029;-75
2023/07/26 07:18:01;;;;;;;289.52;156.27;;;;;;;15.56;100.00;100103.84;5068978;28;20028;-76
2023/07/26 07:20:30;;;;;;;278.75;152.10;;;;;;;15.57;100.00;100102.78;5070028;28;20459;-75
2023/07/26 07:22:55;;;;;;;289.58;156.00;;;;;;;15.48;100.00;100111.41;5072285;28;20043;-75
2023/07/26 07:25:21;;;;;;;278.75;152.05;;;;;;;15.43;100.00;100116.66;5054032;28;20036;-75
2023/07/26 07:27:49;;;;;;;281.63;153.52;;;;;;;15.38;100.00;100112.78;5034617;28;20067;-76
2023/07/26 07:30:15;;;;;;;272.30;149.52;;;;;;;15.33;100.00;100104.47;5069109;28;20078;-77
2023/07/26 07:32:43;;;;;;;264.33;146.75;;;;;;;15.35;100.00;100106.97;5035923;28;20433;-75
2023/07/26 07:35:09;;;;;;;256.42;144.20;;;;;;;15.33;100.00;100107.19;5051112;28;20040;-76
2023/07/26 07:37:34;;;;;;;262.08;146.30;;;;;;;15.35;100.00;100117.81;5038669;28;20383;-76
2023/07/26 07:40:03;;;;;;;232.65;134.57;;;;;;;15.34;100.00;100111.53;5051068;28;20044;-77
2023/07/26 07:42:34;;;;;;;244.88;139.63;;;;;;;15.34;100.00;100094.47;5050696;28;20036;-76
2023/07/26 07:45:00;;;;;;;259.40;145.55;;;;;;;15.46;100.00;100111.66;5071867;28;20028;-77
2023/07/26 07:47:25;;;;;;;228.50;132.98;;;;;;;15.47;100.00;100120.59;5038719;28;20035;-76
2023/07/26 07:49:51;;;;;;;236.95;136.55;;;;;;;15.45;100.00;100103.75;5038641;28;20460;-76
2023/07/26 07:52:16;;;;;;;213.05;127.07;;;;;;;15.38;100.00;100096.53;5071948;28;20040;-76
2023/07/26 07:54:42;;;;;;;211.73;126.80;;;;;;;15.36;100.00;100114.03;5072921;28;20037;-76
2023/07/26 07:57:08;;;;;;;204.57;124.38;;;;;;;15.28;100.00;100101.63;5038293;28;20025;-76
2023/07/26 07:59:33;;;;;;;219.45;129.85;;;;;;;15.29;100.00;100107.84;5070853;28;20037;-76
2023/07/26 08:01:59;;;;;;;207.68;124.90;;;;;;;15.29;100.00;100103.25;5036394;28;20374;-75
2023/07/26 08:04:25;;;;;;;231.10;134.35;;;;;;;15.31;100.00;100103.88;5050722;28;20053;-75
2023/07/26 08:06:50;;;;;;;238.95;137.60;;;;;;;15.31;100.00;100101.16;5035338;28;20029;-83
2023/07/26 08:09:16;;;;;;;231.80;134.55;;;;;;;15.41;100.00;100095.25;5021845;28;20029;-83
2023/07/26 08:11:41;;;;;;;250.00;141.57;;;;;;;15.53;100.00;100093.47;5071797;28;20036;-86
2023/07/26 08:14:08;;;;;;;271.73;150.07;;;;;;;15.66;100.00;100095.16;5054948;28;20060;-84
2023/07/26 08:16:33;;;;;;;255.60;143.60;;;;;;;15.69;100.00;100081.22;5056048;28;20505;-76
2023/07/26 08:19:01;;;;;;;241.00;137.43;;;;;;;15.86;100.00;100076.00;5056373;28;20029;-78
2023/07/26 08:21:27;;;;;;;277.73;151.68;;;;;;;15.90;100.00;100068.25;5022480;28;20043;-78
2023/07/26 08:24:16;;;;;;;277.25;151.20;;;;;;;15.98;100.00;100057.09;5038827;28;20041;-79
2023/07/26 08:30:08;;;;;;;257.73;143.82;;;;;;;16.15;100.00;100022.03;5024717;28;20507;-78
2023/07/26 08:32:35;;;;;;;272.30;149.00;;;;;;;16.35;100.00;100057.00;5055066;28;20194;-78
2023/07/26 08:35:00;;;;;;;277.27;150.80;;;;;;;16.36;100.00;100055.97;5054779;28;20383;-78
2023/07/26 08:37:26;;;;;;;279.58;151.52;;;;;;;16.45;100.00;100054.56;5038279;28;20035;-78
2023/07/26 08:39:52;;;;;;;291.33;155.88;;;;;;;16.45;100.00;100054.56;5038307;28;20040;-78
2023/07/26 08:42:17;;;;;;;288.05;154.50;;;;;;;16.42;100.00;100055.03;5038199;28;20586;-78
2023/07/26 08:44:44;;;;;;;273.25;149.00;;;;;;;16.33;100.00;100048.28;5038026;28;20033;-78
2023/07/26 08:47:10;;;;;;;273.70;149.20;;;;;;;16.29;100.00;100039.75;5054730;28;20033;-78
2023/07/26 08:49:36;;;;;;;264.73;145.82;;;;;;;16.56;100.00;100037.47;5037765;28;20036;-78
2023/07/26 08:52:03;;;;;;;274.05;149.18;;;;;;;16.68;100.00;100032.09;5054836;28;20029;-78
2023/07/26 08:54:29;;;;;;;266.55;146.23;;;;;;;16.83;100.00;100024.34;5037992;28;20033;-78
2023/07/26 08:56:55;;;;;;;272.27;148.13;;;;;;;17.03;100.00;100032.13;5021160;28;20035;-78
2023/07/26 08:59:21;;;;;;;275.80;149.32;;;;;;;16.99;100.00;100027.41;5054643;28;20446;-78
2023/07/26 09:01:47;;;;;;;274.52;148.98;;;;;;;17.02;100.00;100014.19;5037970;28;20452;-79
2023/07/26 09:04:14;;;;;;;264.80;145.23;;;;;;;17.14;100.00;100008.75;5054273;28;20029;-78
2023/07/26 09:06:44;;;;;;;267.65;146.07;;;;;;;17.11;100.00;100006.50;5054094;28;20025;-78
2023/07/26 09:09:11;;;;;;;268.00;146.40;;;;;;;17.18;100.00;100012.66;5054827;28;20029;-80
2023/07/26 09:11:48;;;;;;;266.65;145.95;;;;;;;17.37;100.00;100010.63;5021262;28;20483;-79
2023/07/26 09:14:13;;;;;;;276.88;149.48;;;;;;;17.62;100.00;100001.34;5070661;28;20494;-79
2023/07/26 09:16:39;;;;;;;241.20;135.90;;;;;;;17.72;100.00;100001.53;5054072;28;20104;-77
2023/07/26 09:19:05;;;;;;;237.48;134.68;;;;;;;17.58;100.00;99990.94;5053032;28;20125;-76
2023/07/26 09:21:33;;;;;;;245.43;137.43;;;;;;;17.61;100.00;100002.41;5037065;28;20056;-76
2023/07/26 09:24:00;;;;;;;261.17;143.38;;;;;;;17.48;100.00;100007.03;5053882;28;20491;-77
2023/07/26 09:27:21;;;;;;;260.63;145.77;;;;;;;17.35;100.00;100002.69;5070588;28;20037;-76
2023/07/26 09:29:55;;;;;;;271.13;147.27;;;;;;;17.27;100.00;99994.91;5036532;28;20041;-76
2023/07/26 09:32:30;;;;;;;269.20;146.55;;;;;;;17.39;100.00;99985.94;5069771;28;20126;-76
2023/07/26 09:34:59;;;;;;;270.73;146.95;;;;;;;17.64;100.00;99985.63;5037175;28;20025;-77
2023/07/26 09:37:25;;;;;;;265.05;144.88;;;;;;;17.78;100.00;99970.66;5069940;28;20032;-77
2023/07/26 09:39:51;;;;;;;270.23;146.70;;;;;;;17.75;100.00;99963.00;5037149;28;20037;-77
2023/07/26 09:42:17;;;;;;;263.25;144.18;;;;;;;17.63;100.00;99962.22;5053562;28;20043;-76
2023/07/26 09:44:45;;;;;;;265.50;144.50;;;;;;;17.58;100.00;99958.34;5036750;28;20032;-77
2023/07/26 09:47:11;;;;;;;274.08;148.15;;;;;;;17.64;100.00;99955.72;5036644;28;20060;-77
2023/07/26 09:49:49;;;;;;;266.67;145.35;;;;;;;17.74;100.00;99945.84;5069806;28;20072;-77
2023/07/26 09:52:19;;;;;;;271.00;147.48;;;;;;;17.62;100.00;99941.53;5036798;28;20121;-77
2023/07/26 09:54:46;;;;;;;266.55;145.57;;;;;;;17.73;100.00;99954.25;5036857;28;20040;-76
2023/07/26 09:57:12;;;;;;;274.00;148.70;;;;;;;17.75;100.00;99954.84;5052855;28;20055;-77
2023/07/26 09:59:39;;;;;;;274.77;148.50;;;;;;;17.76;100.00;99935.56;5036758;28;20044;-77
2023/07/26 10:02:07;;;;;;;282.90;151.45;;;;;;;17.64;100.00;99933.97;5036642;28;20039;-77
2023/07/26 10:04:48;;;;;;;254.23;141.10;;;;;;;17.45;100.00;99936.88;5053457;28;20044;-76
2023/07/26 10:07:14;;;;;;;278.73;150.35;;;;;;;17.43;100.00;99932.75;5047974;28;20032;-77
2023/07/26 10:09:43;;;;;;;256.15;141.73;;;;;;;17.42;100.00;99929.19;5036627;28;20032;-77
2023/07/26 10:12:09;;;;;;;248.13;138.63;;;;;;;17.38;100.00;99916.31;5020164;28;20035;-77
2023/07/26 10:14:35;;;;;;;249.48;139.35;;;;;;;17.29;100.00;99910.47;5020151;28;20040;-77
2023/07/26 10:17:03;;;;;;;248.18;139.07;;;;;;;17.31;100.00;99883.88;5036352;28;20037;-77
2023/07/26 10:19:29;;;;;;;238.38;135.25;;;;;;;17.44;100.00;99896.34;5020070;28;20037;-76
2023/07/26 10:21:56;;;;;;;232.80;132.93;;;;;;;17.45;100.00;99903.44;5036213;28;20029;-78
2023/07/26 10:24:25;;;;;;;240.60;136.23;;;;;;;17.28;100.00;99892.47;5052888;28;20033;-77
2023/07/26 10:26:52;;;;;;;253.00;141.00;;;;;;;17.30;100.00;99887.66;5053962;28;20025;-77
2023/07/26 10:29:18;;;;;;;214.05;126.18;;;;;;;17.43;100.00;99895.50;5052403;28;20047;-77
2023/07/26 10:31:44;;;;;;;245.90;138.00;;;;;;;17.47;100.00;99904.03;5035994;28;20111;-77
2023/07/26 10:34:18;;;;;;;249.63;139.57;;;;;;;17.58;100.00;99889.56;5019783;28;20562;-76
2023/07/26 10:36:44;;;;;;;233.05;133.50;;;;;;;17.49;100.00;99891.84;5052444;28;20025;-76
2023/07/26 10:39:11;;;;;;;252.48;140.75;;;;;;;17.33;100.00;99873.56;5069263;28;20422;-76
2023/07/26 10:41:46;;;;;;;253.98;141.77;;;;;;;17.30;100.00;99884.94;5035553;28;20399;-76
2023/07/26 10:44:12;;;;;;;206.23;123.60;;;;;;;17.08;100.00;99890.19;5036084;28;20045;-75
2023/07/26 10:46:55;;;;;;;179.32;113.40;;;;;;;16.94;100.00;99894.25;5067067;28;20040;-76
2023/07/26 10:49:29;;;;;;;185.90;116.07;;;;;;;16.78;100.00;99893.09;5071949;28;20052;-76
2023/07/26 10:51:58;;;;;;;205.50;124.45;;;;;;;16.80;100.00;99890.94;5039003;28;20036;-76